Sunday, January 20, 2019, 6:53 AM GMT
Back to Local

CYOW, Ottawa Int'L. Ont.

Location: , , Canada Lat: 45.317
Local Time: 6:53 AM GMT ( 6:53 GMT) Lon: -75.667
Time Zone: GMT Elev: 380 ft

Show me the last for .
Show Coded

Time T Td Feel RH Dir Speed Gust Alt SLP Vis Weather Sky Remarks
2019-01-20 06:00 -6 -11 -26 76 40° 14 - 30.07 30.11 0 -SN BLSN VV006 Pressure falling rapidly
2019-01-20 05:38 -6 -11 -25 76 50° 13 - 30.09 30.14 1 -SN BLSN VV007 Pressure falling rapidly
2019-01-20 05:24 -6 -11 -26 76 50° 14 - 30.11 30.15 0 -SN BLSN VV006 None
2019-01-20 05:12 -6 -11 -27 76 50° 15 - 30.11 30.16 1 -SN BLSN VV008 None
2019-01-20 05:00 -6 -11 -24 76 50° 12 - 30.12 30.16 1 -SN OVC010 None
2019-01-20 04:18 -6 -13 -26 70 50° 14 - 30.13 30.17 1 -SN OVC011 Pressure falling rapidly
2019-01-20 04:00 -6 -11 -24 76 50° 12 - 30.15 30.19 1 -SN VV008 None
2019-01-20 03:07 -6 -11 -24 76 50° 12 - 30.19 30.23 1 -SG DRSN OVC010 None
2019-01-20 03:00 -6 -11 -24 76 40° 12 - 30.19 30.23 1 -SN OVC011 None
2019-01-20 02:27 -6 -13 -26 70 50° 14 - 30.21 30.25 1 -SN OVC013 Pressure falling rapidly
2019-01-20 02:00 -6 -13 -27 70 60° 15 - 30.23 30.27 1 -SN OVC020 None
2019-01-20 01:31 -8 -13 -30 76 50° 16 - 30.24 30.29 1 -SN OVC023 None
2019-01-20 01:00 -8 -13 -27 76 50° 12 - 30.25 30.29 1 -SN OVC014 None
2019-01-20 00:00 -6 -13 -24 70 50° 12 - 30.28 30.33 1 -SN OVC012 None
2019-01-19 23:00 -6 -13 -24 70 70° 12 - 30.31 30.35 2 -SN OVC020 None
2019-01-19 22:23 -6 -11 -23 76 80° 10 - 30.32 30.36 1 -SN OVC020 None
2019-01-19 22:00 -6 -13 -23 70 60° 10 - 30.32 30.37 1 -SN OVC016 None
2019-01-19 21:35 -6 -13 -24 70 40° 12 - 30.33 30.38 1 -SN OVC017 None
2019-01-19 21:13 -6 -13 -25 70 60° 13 - 30.34 30.38 2 -SN OVC027 None
2019-01-19 21:00 -6 -15 -24 63 40° 12 - 30.35 30.39 3 -SN OVC033 None
2019-01-19 20:33 -6 -17 -23 58 40° 10 - 30.36 30.40 15 -SN OVC040 None
2019-01-19 20:00 -6 -17 -29 58 50° 10 20 30.37 30.41 15 OVC048 None
2019-01-19 19:00 -6 -17 -24 58 40° 12 - 30.35 30.40 15 OVC063 None
2019-01-19 18:00 -6 -18 -25 53 50° 13 - 30.37 30.41 15 OVC070 None
2019-01-19 17:00 -8 -18 -26 58 40° 10 - 30.42 30.47 15 OVC080 None
2019-01-19 16:00 -9 -20 -27 57 30° 9 - 30.46 30.50 15 OVC100 None
2019-01-19 15:00 -9 -20 -27 57 10° 9 - 30.47 30.51 15 OVC120 None
2019-01-19 14:00 -11 -22 -31 57 20° 12 - 30.47 30.51 15 OVC140 None
2019-01-19 13:00 -11 -22 -33 57 360° 14 - 30.46 30.50 15 BKN150 OVC240 None
2019-01-19 12:00 -11 -22 -31 57 350° 12 - 30.42 30.46 15 BKN180 None
2019-01-19 11:00 -11 -20 -32 63 360° 13 - 30.41 30.44 15 FEW230 None
2019-01-19 10:00 -9 -20 -27 57 340° 9 - 30.41 30.45 15 SCT220 None
2019-01-19 09:00 -8 -18 -25 58 330° 9 - 30.41 30.45 15 SCT170 OVC220 None
2019-01-19 08:00 -6 -18 -22 53 10° 9 - 30.39 30.43 15 SCT170 BKN250 None
2019-01-19 07:00 -4 -17 -21 53 330° 10 - 30.37 30.41 15 BKN210 BKN250 None

Support USWX by starting your Amazon purchase here.